Time;durP1;ratioP1;P1;durP2;ratioP2;P2;SDS_P1;SDS_P2;PMS_P1;PMS_P2;Temp;Humidity;BMP_temperature;BMP_pressure;BME280_temperature;BME280_humidity;BME280_pressure;Samples;Min_cycle;Max_cycle;Signal;HPM_P1;HPM_P2
2022/10/08 00:01:22;;;;;;;35.10;29.57;;;12.20;99.90;;;11.44;91.92;98060.28;5010856;28;20449;-83
2022/10/08 00:03:55;;;;;;;32.87;29.27;;;12.10;99.90;;;12.37;92.23;98200.53;5007437;28;20474;-82
2022/10/08 00:06:25;;;;;;;35.30;30.37;;;12.10;99.90;;;11.68;92.38;98129.03;5009951;28;20462;-83
2022/10/08 00:08:55;;;;;;;34.70;29.13;;;12.10;99.90;;;12.18;93.14;98201.31;5017660;28;20458;-84
2022/10/08 00:11:26;;;;;;;34.40;30.70;;;12.00;99.90;;;12.07;93.61;98201.22;5006082;28;21047;-83
2022/10/08 00:13:55;;;;;;;39.67;31.57;;;11.90;99.90;;;11.93;93.49;98167.97;5031061;28;20482;-84
2022/10/08 00:16:26;;;;;;;36.93;31.03;;;11.90;99.90;;;12.03;93.82;98196.25;4998043;28;21224;-83
2022/10/08 00:18:58;;;;;;;40.17;30.97;;;11.90;99.90;;;11.97;94.01;98193.56;5003055;28;20483;-85
2022/10/08 00:21:31;;;;;;;33.20;29.53;;;11.80;99.90;;;12.07;93.47;98203.91;5028130;28;20542;-84
2022/10/08 00:24:00;;;;;;;34.70;31.00;;;11.70;99.90;;;11.96;93.77;98194.59;5035103;28;20466;-88
2022/10/08 00:26:30;;;;;;;35.83;29.50;;;11.70;99.90;;;12.03;93.20;98192.69;5030955;28;20847;-85
2022/10/08 00:29:01;;;;;;;46.43;32.10;;;11.60;99.90;;;12.03;93.33;98198.94;5011378;28;20923;-85
2022/10/08 00:31:32;;;;;;;36.47;30.47;;;11.70;99.90;;;11.33;93.08;98084.31;5008368;28;20448;-85
2022/10/08 00:34:06;;;;;;;33.73;29.87;;;11.70;99.90;;;11.85;93.65;98169.88;5003457;28;20461;-86
2022/10/08 00:36:36;;;;;;;36.57;32.50;;;11.60;99.90;;;11.94;94.12;98185.88;5029023;28;20467;-84
2022/10/08 00:39:08;;;;;;;36.00;31.40;;;11.60;99.90;;;11.94;94.24;98188.59;5029198;28;20490;-86
2022/10/08 00:41:38;;;;;;;35.40;31.53;;;11.60;99.90;;;11.86;94.99;98182.38;5026071;28;20485;-86
2022/10/08 00:44:53;;;;;;;40.87;35.07;;;11.70;99.90;;;12.03;94.61;98189.97;5026880;28;20839;-88
2022/10/08 00:47:34;;;;;;;35.40;31.07;;;11.70;99.90;;;12.09;93.46;98174.75;5021992;28;20461;-89
2022/10/08 00:50:10;;;;;;;35.97;32.00;;;11.70;99.90;;;12.12;93.31;98180.53;5029890;28;20461;-87
2022/10/08 00:52:42;;;;;;;37.97;30.70;;;11.80;99.90;;;12.16;92.87;98176.34;5031284;28;20463;-87
2022/10/08 00:55:13;;;;;;;37.67;31.07;;;11.90;99.90;;;12.02;94.09;98172.09;5022393;28;20464;-88
2022/10/08 00:57:42;;;;;;;39.43;33.07;;;11.80;99.90;;;11.89;93.36;98135.09;5016568;28;20483;-85
2022/10/08 01:00:15;;;;;;;37.20;31.87;;;11.90;99.90;;;11.87;93.40;98132.59;5008289;28;21046;-84
2022/10/08 01:02:43;;;;;;;34.03;30.33;;;11.80;99.90;;;11.87;93.49;98140.72;5029150;28;21042;-84
2022/10/08 01:05:15;;;;;;;37.07;31.93;;;11.80;99.90;;;12.21;92.81;98147.75;5015878;28;20490;-87
2022/10/08 01:07:50;;;;;;;36.37;30.40;;;11.90;99.90;;;11.93;92.93;98128.19;5031940;28;20533;-85
2022/10/08 01:10:30;;;;;;;33.70;30.10;;;11.90;99.90;;;12.12;93.05;98145.34;5040033;28;20462;-87
2022/10/08 01:13:14;;;;;;;39.80;30.07;;;11.90;99.90;;;12.14;92.56;98154.06;5010806;28;20519;-86
2022/10/08 01:15:49;;;;;;;35.53;30.30;;;11.90;99.90;;;12.28;92.08;98167.50;5018522;28;20461;-86
2022/10/08 01:18:25;;;;;;;36.97;30.93;;;12.00;99.90;;;12.35;91.34;98154.69;5037182;28;20439;-87
2022/10/08 01:21:02;;;;;;;34.10;29.73;;;12.10;99.90;;;12.32;90.65;98134.31;5026860;28;20467;-86
2022/10/08 01:24:09;;;;;;;32.60;29.20;;;12.10;99.90;;;11.94;91.49;98102.75;5047239;28;20621;-86
2022/10/08 01:26:52;;;;;;;33.87;29.00;;;12.00;99.90;;;12.29;90.88;98158.31;5038431;28;20463;-85
2022/10/08 01:29:28;;;;;;;36.90;29.53;;;12.00;99.90;;;11.94;90.71;98099.25;5033276;28;20971;-86
2022/10/08 01:32:03;;;;;;;32.47;28.63;;;12.00;99.90;;;12.30;91.10;98157.25;5012071;28;20908;-86
2022/10/08 01:34:37;;;;;;;36.23;30.07;;;12.00;99.90;;;12.14;91.12;98129.69;5038523;28;20452;-86
2022/10/08 01:37:07;;;;;;;35.87;30.70;;;11.90;99.90;;;12.06;91.77;98132.69;5050604;28;20457;-86
2022/10/08 01:39:37;;;;;;;35.47;30.43;;;11.90;99.90;;;12.26;91.52;98153.34;5024229;28;20456;-87
2022/10/08 01:42:09;;;;;;;39.40;29.50;;;12.00;99.90;;;12.15;91.66;98130.53;5000123;28;20550;-87
2022/10/08 01:44:45;;;;;;;34.17;30.43;;;12.00;99.90;;;12.29;90.68;98144.75;5031353;28;20484;-88
2022/10/08 01:47:18;;;;;;;34.73;28.77;;;12.00;99.90;;;12.28;91.61;98151.25;5027706;28;21264;-88
2022/10/08 01:49:51;;;;;;;36.40;30.27;;;12.00;99.90;;;12.14;91.68;98129.69;4998842;28;20464;-85
2022/10/08 01:52:24;;;;;;;39.93;30.33;;;12.10;99.90;;;12.34;91.51;98155.75;5025210;28;20470;-87
2022/10/08 01:54:55;;;;;;;34.07;30.47;;;12.10;99.90;;;11.74;91.26;98059.63;5024710;28;20459;-86
2022/10/08 01:57:23;;;;;;;34.90;29.83;;;12.10;99.90;;;12.33;91.03;98140.53;5002645;28;20460;-89
2022/10/08 01:59:58;;;;;;;33.23;29.63;;;12.20;99.90;;;12.51;90.33;98149.75;5013903;28;20447;-85
2022/10/08 02:02:27;;;;;;;32.80;29.20;;;12.20;99.90;;;12.31;90.11;98111.00;5034538;28;20479;-88
2022/10/08 02:04:56;;;;;;;32.83;29.00;;;12.20;99.90;;;12.49;90.36;98155.41;5007179;28;20488;-88
2022/10/08 02:07:28;;;;;;;34.37;29.30;;;12.20;99.90;;;12.37;89.93;98122.81;5012865;28;20462;-86
2022/10/08 02:10:07;;;;;;;33.60;29.50;;;12.20;99.90;;;12.32;89.30;98090.13;5029908;28;20543;-88
2022/10/08 02:12:36;;;;;;;33.70;28.10;;;12.30;99.90;;;12.59;89.37;98125.91;4997770;28;20449;-88
2022/10/08 02:15:16;;;;;;;33.70;28.23;;;12.30;99.90;;;12.67;88.87;98143.75;5016812;28;20853;-87
2022/10/08 02:17:57;;;;;;;34.70;27.47;;;12.30;99.90;;;12.07;89.10;98079.34;5014321;28;20449;-85
2022/10/08 02:20:33;;;;;;;35.30;28.83;;;12.30;99.90;;;12.33;89.04;98083.66;5049723;28;20460;-87
2022/10/08 02:23:09;;;;;;;32.27;27.20;;;12.30;99.90;;;12.19;88.29;98029.63;5015807;28;20497;-86
2022/10/08 02:25:41;;;;;;;32.30;27.93;;;12.40;99.90;;;12.74;87.84;98117.38;5040025;28;20469;-88
2022/10/08 02:28:17;;;;;;;31.83;27.30;;;12.30;99.90;;;12.63;88.19;98110.00;5027546;28;20462;-88
2022/10/08 02:30:52;;;;;;;30.13;26.40;;;12.30;99.90;;;12.78;87.90;98135.91;5027006;28;20456;-87
2022/10/08 02:33:26;;;;;;;29.20;26.00;;;12.30;99.90;;;12.81;87.87;98138.16;5039558;28;20484;-83
2022/10/08 02:35:57;;;;;;;30.27;27.07;;;12.40;99.90;;;12.78;87.90;98134.03;5010582;28;20797;-84
2022/10/08 02:38:32;;;;;;;35.90;27.20;;;12.40;99.90;;;12.10;87.90;98036.41;5027534;28;20473;-83
2022/10/08 02:41:06;;;;;;;29.67;26.50;;;12.40;99.90;;;12.69;88.03;98141.63;5022947;28;20476;-84
2022/10/08 02:43:40;;;;;;;32.77;27.67;;;12.40;99.90;;;12.55;88.79;98145.56;5027369;28;20467;-82
2022/10/08 02:46:16;;;;;;;36.93;28.00;;;12.30;99.90;;;12.15;88.79;98090.72;5008053;28;20895;-83
2022/10/08 02:48:48;;;;;;;29.90;26.70;;;12.30;99.90;;;11.93;88.73;98022.59;5015582;28;20868;-83
2022/10/08 02:51:18;;;;;;;30.50;27.20;;;12.30;99.90;;;12.41;88.80;98101.50;5030915;28;20508;-82
2022/10/08 02:53:48;;;;;;;33.50;27.97;;;12.30;99.90;;;11.92;88.51;98023.66;5026225;28;20457;-82
2022/10/08 02:56:23;;;;;;;32.47;26.40;;;12.30;99.90;;;12.51;88.61;98123.47;5020149;28;20455;-86
2022/10/08 02:58:51;;;;;;;33.63;28.00;;;12.30;99.90;;;12.54;89.17;98144.72;5031557;28;20509;-86
2022/10/08 03:01:29;;;;;;;33.47;29.83;;;12.30;99.90;;;12.41;90.00;98134.84;5042926;28;20566;-85
2022/10/08 03:04:02;;;;;;;30.53;27.03;;;12.20;99.90;;;12.50;89.31;98137.25;5048366;28;20536;-85
2022/10/08 03:06:32;;;;;;;34.40;28.43;;;12.30;99.90;;;12.42;90.07;98136.50;4999053;28;20479;-86
2022/10/08 03:09:01;;;;;;;36.33;28.47;;;12.20;99.90;;;12.50;89.37;98131.81;5013719;28;20452;-85
2022/10/08 03:11:30;;;;;;;31.30;27.67;;;12.20;99.90;;;12.39;89.63;98136.97;5009354;28;20447;-86
2022/10/08 03:14:00;;;;;;;31.50;28.20;;;12.10;99.90;;;12.32;90.24;98136.19;5028728;28;20477;-85
2022/10/08 03:16:38;;;;;;;33.87;27.90;;;12.10;99.90;;;12.46;89.63;98134.19;5041803;28;20468;-85
2022/10/08 03:19:09;;;;;;;31.97;28.57;;;12.10;99.90;;;11.99;90.96;98104.81;5035425;28;20454;-85
2022/10/08 03:21:39;;;;;;;32.20;28.80;;;12.00;99.90;;;12.16;90.71;98126.78;5040905;28;20518;-83
2022/10/08 03:24:10;;;;;;;34.73;28.40;;;12.00;99.90;;;12.22;91.13;98131.28;5021303;28;20442;-83
2022/10/08 03:26:38;;;;;;;36.37;29.47;;;12.00;99.90;;;12.16;91.18;98124.06;5032573;28;20502;-86
2022/10/08 03:29:09;;;;;;;34.30;30.50;;;12.00;99.90;;;12.25;90.84;98127.31;5014467;28;20454;-84
2022/10/08 03:31:38;;;;;;;34.00;29.37;;;12.00;99.90;;;12.21;91.29;98135.03;5041171;28;20971;-84
2022/10/08 03:34:06;;;;;;;34.93;29.17;;;12.00;99.90;;;12.11;91.38;98138.25;5032500;28;20440;-87
2022/10/08 03:36:35;;;;;;;31.37;27.37;;;12.00;99.90;;;12.23;91.16;98154.59;5016598;28;20487;-87
2022/10/08 03:39:03;;;;;;;35.17;30.30;;;11.90;99.90;;;12.25;90.40;98140.84;5003635;28;20473;-85
2022/10/08 03:41:33;;;;;;;37.10;29.63;;;11.90;99.90;;;11.69;91.49;98090.09;5022397;28;20458;-84
2022/10/08 03:44:00;;;;;;;38.23;32.03;;;11.80;99.90;;;11.50;91.77;98072.94;5029213;28;20453;-85
2022/10/08 03:46:33;;;;;;;34.47;30.77;;;11.80;99.90;;;12.02;92.02;98153.13;5001302;28;20494;-85
2022/10/08 03:49:05;;;;;;;36.47;30.43;;;11.80;99.90;;;12.01;92.61;98151.44;5010238;28;20480;-84
2022/10/08 03:51:33;;;;;;;38.00;31.47;;;11.70;99.90;;;12.04;92.37;98151.03;5028282;28;20452;-84
2022/10/08 03:54:01;;;;;;;34.53;30.80;;;11.80;99.90;;;11.87;92.04;98116.34;5017636;28;20457;-85
2022/10/08 03:56:29;;;;;;;37.73;30.70;;;11.80;99.90;;;12.00;91.98;98130.81;5010615;28;20978;-87
2022/10/08 03:58:59;;;;;;;34.97;28.97;;;11.80;99.90;;;12.16;91.87;98151.97;5030445;28;20531;-86
2022/10/08 04:01:28;;;;;;;36.03;30.23;;;11.90;99.90;;;11.66;91.20;98097.81;5027017;28;20448;-86
2022/10/08 04:03:59;;;;;;;41.50;31.83;;;11.90;99.90;;;11.89;91.09;98105.31;5034287;28;20515;-88
2022/10/08 04:06:31;;;;;;;38.40;30.30;;;11.90;99.90;;;12.24;90.65;98147.31;5011516;28;20479;-89
2022/10/08 04:08:59;;;;;;;39.37;29.90;;;11.90;99.90;;;12.25;90.70;98151.69;5011235;28;20499;-87
2022/10/08 04:11:28;;;;;;;34.63;30.00;;;11.90;99.90;;;12.13;90.47;98130.75;5014029;28;20493;-89
2022/10/08 04:13:56;;;;;;;35.97;29.60;;;11.90;99.90;;;12.07;90.24;98126.22;5042250;28;20456;-88
2022/10/08 04:16:23;;;;;;;34.53;29.70;;;11.80;99.90;;;12.19;90.82;98148.00;5035760;28;20463;-87
2022/10/08 04:18:51;;;;;;;33.23;28.33;;;11.80;99.90;;;12.19;90.28;98156.13;5020599;28;20456;-89
2022/10/08 04:21:19;;;;;;;37.93;29.10;;;11.80;99.90;;;11.67;91.52;98113.00;5023669;28;20455;-86
2022/10/08 04:23:49;;;;;;;34.53;29.40;;;11.70;99.90;;;11.89;92.18;98144.03;5018535;28;20463;-89
2022/10/08 04:26:18;;;;;;;33.60;29.00;;;11.70;99.90;;;11.83;92.68;98142.22;5041722;28;20479;-88
2022/10/08 04:28:46;;;;;;;35.97;30.63;;;11.60;99.90;;;11.50;92.45;98083.78;5040934;28;20485;-85
2022/10/08 04:31:16;;;;;;;39.20;31.43;;;11.60;99.90;;;12.09;91.62;98163.91;5015472;28;20515;-89
2022/10/08 04:33:45;;;;;;;36.10;30.80;;;11.70;99.90;;;12.10;91.54;98163.69;4995820;28;20482;-86
2022/10/08 04:36:15;;;;;;;34.27;28.13;;;11.70;99.90;;;12.10;91.14;98160.97;5032483;28;20462;-85
2022/10/08 04:38:43;;;;;;;32.90;27.43;;;11.80;99.90;;;12.03;91.15;98163.75;5019623;28;20467;-84
2022/10/08 04:41:14;;;;;;;33.50;29.27;;;11.80;99.90;;;12.04;91.31;98159.16;5035672;28;20462;-86
2022/10/08 04:43:43;;;;;;;32.97;28.20;;;11.80;99.90;;;12.08;91.30;98156.84;5022665;28;20932;-87
2022/10/08 04:46:17;;;;;;;32.03;28.30;;;11.70;99.90;;;12.00;90.90;98144.38;5024706;28;20836;-86
2022/10/08 04:48:47;;;;;;;32.70;27.63;;;11.70;99.90;;;12.15;90.27;98155.72;5015852;28;20879;-86
2022/10/08 04:51:15;;;;;;;30.30;26.40;;;11.80;99.90;;;11.95;91.55;98158.56;5013612;28;20448;-85
2022/10/08 04:53:44;;;;;;;31.73;28.33;;;11.70;99.90;;;11.61;91.39;98103.88;5015988;28;20607;-83
2022/10/08 04:56:18;;;;;;;35.60;27.07;;;11.70;99.90;;;11.96;91.21;98152.09;5031994;28;20465;-85
2022/10/08 04:58:47;;;;;;;32.83;28.00;;;11.70;99.90;;;11.46;91.76;98106.91;5038546;28;20568;-88
2022/10/08 05:01:17;;;;;;;33.20;28.07;;;11.60;99.90;;;11.85;91.69;98164.47;5044834;28;20456;-83
2022/10/08 05:03:46;;;;;;;34.37;30.30;;;11.60;99.90;;;11.86;91.13;98158.00;5016969;28;20463;-86
2022/10/08 05:06:16;;;;;;;34.93;29.40;;;11.60;99.90;;;11.88;91.99;98174.88;5026625;28;20483;-83
2022/10/08 05:08:44;;;;;;;35.33;30.50;;;11.60;99.90;;;11.92;91.40;98164.44;5017616;28;20809;-85
2022/10/08 05:11:14;;;;;;;32.43;28.07;;;11.70;99.90;;;11.80;91.41;98142.66;5041311;28;20517;-84
2022/10/08 05:13:45;;;;;;;34.07;28.73;;;11.70;99.90;;;11.98;90.79;98168.13;5035392;28;20529;-85
2022/10/08 05:16:16;;;;;;;31.60;27.77;;;11.70;99.90;;;11.99;91.28;98175.19;5043265;28;20486;-86
2022/10/08 05:18:44;;;;;;;32.40;28.70;;;11.70;99.90;;;11.89;91.26;98167.59;5035437;28;20515;-86
2022/10/08 05:21:16;;;;;;;35.40;30.60;;;11.70;99.90;;;12.15;90.48;98174.69;5049384;28;20474;-78
2022/10/08 05:23:43;;;;;;;32.23;27.47;;;11.80;99.90;;;12.18;90.54;98174.22;5057389;28;20517;-76
2022/10/08 05:26:14;;;;;;;30.07;26.90;;;11.80;99.90;;;12.29;89.88;98191.66;5043918;28;20478;-75
2022/10/08 05:28:41;;;;;;;31.00;27.53;;;11.90;99.90;;;12.23;89.88;98183.59;5022356;28;20533;-74
2022/10/08 05:31:09;;;;;;;33.50;27.50;;;11.90;99.90;;;12.22;89.35;98173.81;5013782;28;20828;-75
2022/10/08 05:33:37;;;;;;;33.60;27.87;;;12.00;99.90;;;12.09;90.30;98188.28;5024352;28;20472;-76
2022/10/08 05:36:05;;;;;;;32.33;27.07;;;11.90;99.90;;;12.27;89.77;98187.50;5022959;28;21130;-75
2022/10/08 05:38:32;;;;;;;33.43;26.40;;;12.00;99.90;;;12.33;89.56;98192.03;5030072;28;20988;-76
2022/10/08 05:41:10;;;;;;;30.63;25.90;;;12.00;99.90;;;12.20;89.63;98201.09;5002970;28;20521;-76
2022/10/08 05:43:39;;;;;;;30.93;27.73;;;12.00;99.90;;;12.15;89.61;98184.69;5024285;28;20465;-77
2022/10/08 05:46:07;;;;;;;35.00;28.10;;;12.10;99.90;;;12.31;89.63;98222.06;5025188;28;20474;-74
2022/10/08 05:48:35;;;;;;;32.73;27.00;;;12.10;99.90;;;12.31;89.55;98213.09;5002097;28;20450;-76
2022/10/08 05:51:07;;;;;;;30.20;26.27;;;12.00;99.90;;;12.43;89.04;98224.88;5010847;28;20458;-75
2022/10/08 05:53:36;;;;;;;28.63;25.50;;;12.10;99.90;;;12.57;88.54;98208.47;5007057;28;20468;-75
2022/10/08 05:56:05;;;;;;;27.60;24.70;;;12.20;99.90;;;12.58;88.14;98204.72;5021027;28;20996;-76
2022/10/08 05:58:35;;;;;;;28.47;25.43;;;12.30;99.90;;;12.73;88.03;98202.47;5025289;28;20945;-76
2022/10/08 06:01:09;;;;;;;28.03;25.07;;;12.40;99.90;;;12.73;87.94;98209.75;5028652;28;20615;-76
2022/10/08 06:03:36;;;;;;;28.90;25.63;;;12.40;99.90;;;12.65;87.87;98191.91;5022696;28;20463;-76
2022/10/08 06:06:06;;;;;;;28.10;24.63;;;12.40;99.90;;;12.69;88.56;98213.97;5028511;28;20475;-76
2022/10/08 06:08:35;;;;;;;26.57;23.37;;;12.40;99.90;;;12.86;87.43;98223.19;5008508;28;20456;-77
2022/10/08 06:11:05;;;;;;;26.50;23.30;;;12.50;99.90;;;12.95;86.36;98221.00;5019086;28;20993;-78
2022/10/08 06:13:34;;;;;;;26.17;23.57;;;12.60;99.90;;;12.92;86.56;98231.50;5024140;28;20461;-77
2022/10/08 06:16:09;;;;;;;28.07;24.57;;;12.60;99.90;;;12.83;87.23;98233.66;5017725;28;20494;-78
2022/10/08 06:18:39;;;;;;;26.60;23.90;;;12.60;99.90;;;12.74;87.61;98236.66;5032761;28;20456;-78
2022/10/08 06:21:09;;;;;;;28.77;25.63;;;12.50;99.90;;;12.89;87.13;98246.31;5017170;28;20526;-79
2022/10/08 06:23:50;;;;;;;28.40;24.57;;;12.60;99.90;;;13.00;86.56;98247.44;5004083;28;21021;-79
2022/10/08 06:26:20;;;;;;;26.73;23.83;;;12.60;99.90;;;13.14;86.22;98243.53;5018102;28;20536;-80
2022/10/08 06:28:48;;;;;;;30.83;26.43;;;12.70;99.90;;;13.33;85.11;98254.34;5022357;28;20460;-74
2022/10/08 06:31:17;;;;;;;32.60;21.43;;;12.90;99.90;;;13.38;84.67;98250.97;5024574;28;20465;-77
2022/10/08 06:33:45;;;;;;;26.93;22.77;;;12.90;99.80;;;13.40;84.39;98251.56;5020656;28;20801;-79
2022/10/08 06:36:16;;;;;;;26.37;22.30;;;13.00;99.10;;;13.52;83.72;98249.78;5034796;28;20547;-78
2022/10/08 06:38:48;;;;;;;26.00;22.47;;;13.10;98.80;;;13.38;83.86;98251.81;5037870;28;20480;-78
2022/10/08 06:41:16;;;;;;;25.90;23.10;;;13.10;97.90;;;13.41;83.76;98250.50;5040692;28;20487;-78
2022/10/08 06:43:43;;;;;;;26.63;22.83;;;13.10;97.90;;;13.56;83.46;98259.09;5034957;28;20464;-79
2022/10/08 06:46:10;;;;;;;25.77;23.00;;;13.10;98.00;;;13.53;nan;98267.72;5041419;28;21262;-78
2022/10/08 06:48:39;;;;;;;24.37;21.77;;;13.20;96.80;;;13.53;83.21;98251.44;5013719;28;20515;-79
2022/10/08 06:51:21;;;;;;;25.70;22.67;;;13.20;96.50;;;13.57;82.92;98268.09;5013356;28;20488;-80
2022/10/08 06:53:53;;;;;;;30.60;22.67;;;13.30;96.50;;;13.59;82.58;98261.38;4999557;28;20478;-81
2022/10/08 06:56:21;;;;;;;26.90;21.77;;;13.30;96.50;;;13.55;83.07;98256.66;5021133;28;20480;-78
2022/10/08 06:58:49;;;;;;;24.80;22.40;;;13.30;96.50;;;13.90;82.28;98257.84;5005136;28;20881;-77
2022/10/08 07:01:18;;;;;;;24.23;21.67;;;13.40;96.50;;;14.06;81.13;98257.19;5019672;28;20539;-80
2022/10/08 07:03:51;;;;;;;24.07;21.10;;;13.60;96.20;;;14.17;81.11;98260.97;5012449;28;20550;-78
2022/10/08 07:06:19;;;;;;;23.73;21.30;;;13.60;95.80;;;14.29;80.05;98272.72;5014396;28;20985;-79
2022/10/08 07:08:46;;;;;;;26.20;21.67;;;13.80;94.70;;;14.06;80.94;98273.47;5018159;28;20457;-78
2022/10/08 07:11:16;;;;;;;23.83;21.33;;;13.80;94.40;;;14.37;80.17;98266.09;5018716;28;20891;-79
2022/10/08 07:13:44;;;;;;;24.03;21.33;;;13.80;94.50;;;14.50;79.66;98269.66;5003348;28;20500;-79
2022/10/08 07:16:13;;;;;;;25.80;23.27;;;13.90;94.20;;;14.55;78.94;98267.06;4989550;28;20491;-78
2022/10/08 07:18:42;;;;;;;25.03;22.43;;;14.10;93.80;;;14.96;77.75;98270.78;5009926;28;20584;-79
2022/10/08 07:21:14;;;;;;;23.20;20.80;;;14.30;93.80;;;15.25;77.12;98279.00;5015307;28;20466;-78
2022/10/08 07:23:43;;;;;;;24.40;21.87;;;14.50;93.20;;;14.76;77.23;98245.81;4998833;28;20554;-80
2022/10/08 07:26:19;;;;;;;24.07;19.63;;;14.60;92.30;;;15.15;77.47;98273.34;5019507;28;20461;-80
2022/10/08 07:28:51;;;;;;;23.03;20.80;;;14.70;92.20;;;15.34;76.96;98287.63;5008802;28;20466;-79
2022/10/08 07:31:20;;;;;;;25.53;20.27;;;14.80;92.20;;;15.34;76.61;98286.78;5034445;28;20545;-78
2022/10/08 07:33:48;;;;;;;23.43;21.03;;;14.90;91.80;;;15.58;75.82;98282.94;5027696;28;20462;-80
2022/10/08 07:36:20;;;;;;;22.27;20.10;;;15.10;91.80;;;15.52;76.14;98293.97;5019813;28;20532;-80
2022/10/08 07:38:48;;;;;;;25.83;20.60;;;15.20;91.40;;;15.67;76.23;98294.28;5021972;28;20465;-79
2022/10/08 07:41:15;;;;;;;21.33;18.80;;;15.20;91.60;;;15.72;76.05;98288.94;5027550;28;20527;-76
2022/10/08 07:43:42;;;;;;;21.83;19.63;;;15.20;91.60;;;15.55;76.93;98291.59;5015409;28;21234;-78
2022/10/08 07:46:12;;;;;;;22.57;20.17;;;15.30;91.60;;;15.85;76.46;98295.16;5020729;28;20469;-79
2022/10/08 07:48:40;;;;;;;23.10;20.80;;;15.30;91.90;;;15.79;75.91;98291.50;5024094;28;20462;-77
2022/10/08 07:51:10;;;;;;;26.20;21.33;;;15.30;91.60;;;15.94;76.25;98301.06;5018979;28;20446;-77
2022/10/08 07:53:39;;;;;;;22.53;20.10;;;15.40;91.70;;;16.13;75.10;98299.78;5022755;28;20462;-79
2022/10/08 07:56:08;;;;;;;21.73;19.63;;;15.60;91.40;;;16.25;74.84;98298.91;5019326;28;20458;-80
2022/10/08 07:58:36;;;;;;;19.70;17.87;;;15.70;91.30;;;16.47;74.16;98276.38;5023700;28;20469;-79
2022/10/08 08:01:06;;;;;;;20.20;18.27;;;15.90;91.30;;;16.76;72.98;98306.31;5027557;28;20466;-78
2022/10/08 08:03:34;;;;;;;21.87;19.63;;;16.10;90.90;;;16.56;73.07;98267.53;5024217;28;20495;-76
2022/10/08 08:06:02;;;;;;;21.03;18.83;;;16.30;90.70;;;17.03;72.26;98300.16;5025783;28;20958;-78
2022/10/08 08:08:29;;;;;;;21.03;18.83;;;16.50;90.40;;;17.02;72.75;98314.88;5033626;28;20488;-81
2022/10/08 08:10:58;;;;;;;19.23;17.37;;;16.50;90.30;;;17.36;70.93;98314.81;5023446;28;20481;-77
2022/10/08 08:13:27;;;;;;;19.53;17.43;;;16.80;89.90;;;17.40;70.66;98307.78;5023042;28;20462;-79
2022/10/08 08:15:58;;;;;;;22.87;17.27;;;17.00;89.10;;;17.60;69.89;98309.97;5019603;28;20553;-78
2022/10/08 08:18:28;;;;;;;17.87;16.10;;;17.20;88.70;;;17.20;71.05;98317.34;5022474;28;20466;-78
2022/10/08 08:21:00;;;;;;;18.87;17.07;;;17.00;88.60;;;17.21;71.44;98310.81;5020192;28;20474;-77
2022/10/08 08:23:34;;;;;;;19.67;17.57;;;16.90;89.00;;;17.37;70.91;98316.50;5019305;28;20461;-76
2022/10/08 08:26:11;;;;;;;19.77;17.63;;;16.90;89.00;;;16.89;72.05;98319.59;5020402;28;20780;-75
2022/10/08 08:28:39;;;;;;;20.43;18.27;;;16.80;88.70;;;16.84;72.35;98295.78;5013273;28;20474;-77
2022/10/08 08:31:14;;;;;;;17.87;15.93;;;16.60;89.40;;;16.96;72.72;98322.13;5021663;28;20490;-78
2022/10/08 08:33:44;;;;;;;19.23;16.93;;;16.50;89.60;;;16.64;72.43;98277.22;5012125;28;20454;-77
2022/10/08 08:36:40;;;;;;;18.70;16.80;;;16.60;89.40;;;16.99;72.58;98327.16;5022430;28;20455;-77
2022/10/08 08:39:24;;;;;;;17.97;16.17;;;16.60;89.50;;;17.03;71.18;98327.47;5018841;28;20459;-77
2022/10/08 08:42:18;;;;;;;15.67;13.73;;;16.70;88.80;;;17.01;70.35;98318.69;5008590;28;20834;-78
2022/10/08 08:44:48;;;;;;;17.77;14.40;;;16.70;87.90;;;16.82;70.02;98324.41;5028373;28;21070;-77
2022/10/08 08:47:21;;;;;;;17.37;13.53;;;16.60;87.60;;;17.09;69.85;98316.38;5027590;28;20489;-78
2022/10/08 08:49:53;;;;;;;15.07;13.67;;;16.70;87.80;;;17.13;68.50;98339.34;5025040;28;20520;-76
2022/10/08 08:52:25;;;;;;;15.07;13.60;;;16.90;86.70;;;17.37;69.11;98341.06;5023413;28;20475;-80
2022/10/08 08:54:53;;;;;;;23.00;14.87;;;17.00;87.20;;;17.51;68.86;98338.78;5017819;28;20455;-81
2022/10/08 08:57:34;;;;;;;17.27;13.80;;;17.10;87.30;;;17.49;67.78;98325.38;5002032;28;20880;-79
2022/10/08 09:00:06;;;;;;;14.03;11.97;;;17.30;86.40;;;17.62;66.69;98337.00;5032643;28;20450;-76
2022/10/08 09:02:39;;;;;;;15.03;13.47;;;17.40;85.60;;;17.28;68.79;98336.03;5016449;28;20463;-81
2022/10/08 09:05:10;;;;;;;17.50;13.10;;;17.10;86.10;;;17.39;68.53;98330.72;5018127;28;20458;-78
2022/10/08 09:07:45;;;;;;;14.17;11.60;;;17.10;86.30;;;17.56;65.90;98336.94;5004038;28;20486;-78
2022/10/08 09:10:19;;;;;;;12.30;11.10;;;17.20;85.10;;;17.90;64.73;98329.69;5009917;28;20455;-81
2022/10/08 09:12:51;;;;;;;12.20;10.90;;;17.40;84.60;;;17.94;64.08;98339.84;4994866;28;20489;-83
2022/10/08 09:15:20;;;;;;;13.77;10.43;;;17.50;84.00;;;18.16;63.80;98338.22;5021773;28;20467;-81
2022/10/08 09:17:51;;;;;;;19.93;11.63;;;17.70;84.00;;;17.87;64.25;98330.19;5021394;28;20471;-78
2022/10/08 09:20:22;;;;;;;14.10;9.90;;;17.70;83.60;;;18.14;62.71;98332.19;5000900;28;20834;-79
2022/10/08 09:22:51;;;;;;;11.90;9.97;;;17.60;83.00;;;18.82;60.91;98331.69;5020316;28;20577;-78
2022/10/08 09:25:22;;;;;;;11.77;10.57;;;18.10;82.70;;;18.86;60.50;98330.06;5001159;28;20471;-78
2022/10/08 09:27:54;;;;;;;10.97;9.90;;;18.40;81.90;;;18.92;60.31;98326.28;5019615;28;20486;-79
2022/10/08 09:30:33;;;;;;;10.00;9.10;;;18.40;81.50;;;18.80;58.83;98281.84;5020789;28;20512;-78
2022/10/08 09:33:05;;;;;;;9.93;8.27;;;18.70;80.50;;;19.35;58.06;98326.31;5001553;28;20525;-76
2022/10/08 09:35:33;;;;;;;9.23;8.03;;;18.80;80.20;;;19.71;56.67;98333.88;5018362;28;20540;-82
2022/10/08 09:38:02;;;;;;;11.20;8.00;;;19.20;79.40;;;19.60;56.79;98332.16;5021463;28;20447;-79
2022/10/08 09:40:29;;;;;;;8.47;7.53;;;19.30;78.50;;;19.44;56.48;98329.34;5026415;28;20511;-82
2022/10/08 09:43:18;;;;;;;10.37;7.60;;;19.20;77.70;;;19.95;55.28;98334.25;5002601;28;20470;-85
2022/10/08 09:45:46;;;;;;;10.37;6.60;;;19.50;77.50;;;19.67;56.02;98339.06;5021023;28;20468;-81
2022/10/08 09:48:21;;;;;;;7.57;5.50;;;19.40;77.10;;;19.37;54.10;98339.75;5008061;28;20483;-84
2022/10/08 09:50:57;;;;;;;6.70;5.97;;;19.30;74.80;;;19.00;55.78;98299.53;5027978;28;20466;-83
2022/10/08 09:53:31;;;;;;;5.43;4.83;;;19.00;75.70;;;19.18;54.21;98334.69;5025645;28;21096;-78
2022/10/08 09:56:01;;;;;;;4.83;4.33;;;19.00;74.70;;;18.92;53.66;98339.97;5034930;28;20525;-83
2022/10/08 09:58:34;;;;;;;7.40;4.43;;;18.70;73.30;;;18.85;54.35;98339.34;5019426;28;20783;-76
2022/10/08 10:01:06;;;;;;;9.50;2.97;;;18.60;73.80;;;19.34;52.67;98335.63;5022812;28;20496;-85
2022/10/08 10:03:35;;;;;;;4.57;3.70;;;18.80;73.00;;;19.31;52.11;98316.13;5000446;28;21458;-79
2022/10/08 10:06:02;;;;;;;6.43;3.80;;;18.90;72.10;;;19.53;51.59;98337.91;5001174;28;20452;-78
2022/10/08 10:08:54;;;;;;;5.63;3.90;;;19.00;71.60;;;19.50;50.68;98339.28;5006265;28;20889;-78
2022/10/08 10:11:30;;;;;;;4.23;3.47;;;19.20;70.40;;;19.47;50.49;98334.31;5022765;28;20470;-82
2022/10/08 10:14:06;;;;;;;5.63;3.40;;;19.20;70.00;;;19.27;49.87;98340.50;5024093;28;20490;-82
2022/10/08 10:16:39;;;;;;;4.50;3.37;;;19.10;69.20;;;18.47;51.75;98320.16;5037504;28;21250;-88
2022/10/08 10:19:12;;;;;;;5.57;3.13;;;18.50;69.50;;;17.84;52.00;98348.78;5004004;28;20484;-78
2022/10/08 10:21:48;;;;;;;9.90;3.87;;;17.90;68.50;;;17.59;53.09;98356.63;5025803;28;20465;-78
2022/10/08 10:24:48;;;;;;;5.20;3.23;;;17.50;69.10;;;17.37;52.45;98343.78;5018063;28;20466;-77
2022/10/08 10:27:24;;;;;;;5.40;3.20;;;17.20;68.90;;;17.03;51.91;98349.28;5002716;28;21257;-78